createdAt,value
2022-10-31T00:01:41.080Z,13.60
2022-10-31T00:04:09.269Z,13.50
2022-10-31T00:06:39.541Z,13.50
2022-10-31T00:09:07.772Z,13.50
2022-10-31T00:11:37.329Z,13.50
2022-10-31T00:14:05.901Z,13.50
2022-10-31T00:16:34.190Z,13.50
2022-10-31T00:19:04.731Z,13.50
2022-10-31T00:21:34.932Z,13.50
2022-10-31T00:24:03.685Z,13.50
2022-10-31T00:26:34.370Z,13.40
2022-10-31T00:29:06.164Z,13.40
2022-10-31T00:31:34.319Z,13.40
2022-10-31T00:34:03.906Z,13.40
2022-10-31T00:36:32.052Z,13.40
2022-10-31T00:39:01.256Z,13.30
2022-10-31T00:41:29.962Z,13.30
2022-10-31T00:43:58.259Z,13.30
2022-10-31T00:46:30.178Z,13.20
2022-10-31T00:48:58.311Z,13.30
2022-10-31T00:51:26.987Z,13.20
2022-10-31T00:53:55.136Z,13.20
2022-10-31T00:56:23.394Z,13.20
2022-10-31T00:58:53.815Z,13.20
2022-10-31T01:01:24.176Z,13.20
2022-10-31T01:03:53.803Z,13.10
2022-10-31T01:06:21.893Z,13.10
2022-10-31T01:08:50.370Z,13.10
2022-10-31T01:11:21.379Z,13.10
2022-10-31T01:13:52.995Z,13.00
2022-10-31T01:16:23.750Z,13.00
2022-10-31T01:18:53.684Z,13.00
2022-10-31T01:21:23.647Z,13.00
2022-10-31T01:23:51.889Z,13.00
2022-10-31T01:26:23.948Z,12.90
2022-10-31T01:28:54.144Z,12.90
2022-10-31T01:31:24.702Z,12.90
2022-10-31T01:33:54.191Z,12.80
2022-10-31T01:36:25.157Z,12.80
2022-10-31T01:38:54.811Z,12.80
2022-10-31T01:41:29.022Z,12.80
2022-10-31T01:44:01.417Z,12.80
2022-10-31T01:46:33.075Z,12.70
2022-10-31T01:49:06.106Z,12.70
2022-10-31T01:51:38.720Z,12.70
2022-10-31T01:54:10.057Z,12.60
2022-10-31T01:56:43.395Z,12.60
2022-10-31T01:59:17.530Z,12.60
2022-10-31T02:01:45.793Z,12.60
2022-10-31T02:04:16.008Z,12.50
2022-10-31T02:06:49.536Z,12.50
2022-10-31T02:09:18.611Z,12.50
2022-10-31T02:11:48.947Z,12.50
2022-10-31T02:14:17.351Z,12.40
2022-10-31T02:16:47.051Z,12.40
2022-10-31T02:19:21.141Z,12.40
2022-10-31T02:21:59.810Z,12.40
2022-10-31T02:24:46.617Z,12.40
2022-10-31T02:27:42.995Z,12.30
2022-10-31T02:30:20.506Z,12.30
2022-10-31T02:33:08.313Z,12.30
2022-10-31T02:35:52.153Z,12.20
2022-10-31T02:38:28.354Z,12.20
2022-10-31T02:41:07.836Z,12.20
2022-10-31T02:43:51.138Z,12.20
2022-10-31T02:46:29.986Z,12.10
2022-10-31T02:49:06.002Z,12.10
2022-10-31T02:51:34.398Z,12.10
2022-10-31T02:54:02.524Z,12.00
2022-10-31T02:56:33.492Z,12.00
2022-10-31T02:59:05.845Z,12.00
2022-10-31T03:01:58.573Z,11.90
2022-10-31T03:04:50.177Z,11.90
2022-10-31T03:07:24.879Z,11.90
2022-10-31T03:10:04.830Z,11.90
2022-10-31T03:12:44.591Z,11.90
2022-10-31T03:15:21.710Z,11.90
2022-10-31T03:17:57.926Z,11.80
2022-10-31T03:20:32.215Z,11.80
2022-10-31T03:23:02.379Z,11.80
2022-10-31T03:25:33.650Z,11.80
2022-10-31T03:28:04.667Z,11.70
2022-10-31T03:30:39.391Z,11.70
2022-10-31T03:33:12.599Z,11.70
2022-10-31T03:35:47.102Z,11.70
2022-10-31T03:38:18.097Z,11.70
2022-10-31T03:40:50.204Z,11.70
2022-10-31T03:45:51.130Z,11.70
2022-10-31T03:48:21.752Z,11.60
2022-10-31T03:51:00.053Z,11.60
2022-10-31T03:53:36.005Z,11.60
2022-10-31T03:56:12.515Z,11.60
2022-10-31T03:58:48.749Z,11.60
2022-10-31T04:01:20.885Z,11.60
2022-10-31T04:03:50.231Z,11.60
2022-10-31T04:06:23.976Z,11.60
2022-10-31T04:08:55.924Z,11.60
2022-10-31T04:11:29.398Z,11.60
2022-10-31T04:14:33.590Z,11.60
2022-10-31T04:17:03.463Z,11.50
2022-10-31T04:19:37.265Z,11.50
2022-10-31T04:22:06.762Z,11.50
2022-10-31T04:24:34.882Z,11.50
2022-10-31T04:27:03.057Z,11.50
2022-10-31T04:29:33.353Z,11.50
2022-10-31T04:32:01.478Z,11.50
2022-10-31T04:34:29.610Z,11.40
2022-10-31T04:36:57.847Z,11.40
2022-10-31T04:39:27.838Z,11.40
2022-10-31T04:42:18.888Z,11.40
2022-10-31T04:44:46.985Z,11.30
2022-10-31T04:47:17.399Z,11.30
2022-10-31T04:49:47.564Z,11.30
2022-10-31T04:52:18.515Z,11.30
2022-10-31T04:54:48.109Z,11.20
2022-10-31T04:57:43.026Z,11.20
2022-10-31T05:00:16.767Z,11.20
2022-10-31T05:02:46.299Z,11.20
2022-10-31T05:05:18.585Z,11.10
2022-10-31T05:07:50.592Z,11.10
2022-10-31T05:10:23.949Z,11.10
2022-10-31T05:12:54.392Z,11.10
2022-10-31T05:15:40.880Z,11.10
2022-10-31T05:18:47.438Z,11.00
2022-10-31T05:21:34.139Z,11.00
2022-10-31T05:24:05.052Z,11.00
2022-10-31T05:26:36.763Z,11.00
2022-10-31T05:29:07.252Z,10.90
2022-10-31T05:31:35.692Z,10.90
2022-10-31T05:34:08.307Z,10.90
2022-10-31T05:36:54.841Z,10.90
2022-10-31T05:39:24.851Z,10.90
2022-10-31T05:41:59.231Z,10.80
2022-10-31T05:44:28.868Z,10.80
2022-10-31T05:47:19.935Z,10.80
2022-10-31T05:49:57.281Z,10.80
2022-10-31T05:52:44.265Z,10.70
2022-10-31T05:55:26.698Z,10.70
2022-10-31T05:58:07.586Z,10.70
2022-10-31T06:00:37.671Z,10.70
2022-10-31T06:03:11.822Z,10.70
2022-10-31T06:05:56.287Z,10.70
2022-10-31T06:08:32.769Z,10.70
2022-10-31T06:11:06.027Z,10.70
2022-10-31T06:13:53.884Z,10.70
2022-10-31T06:16:26.611Z,10.70
2022-10-31T06:18:58.119Z,10.70
2022-10-31T06:21:26.535Z,10.70
2022-10-31T06:23:58.257Z,10.70
2022-10-31T06:26:43.500Z,10.70
2022-10-31T06:29:13.047Z,10.70
2022-10-31T06:32:01.418Z,10.70
2022-10-31T06:34:30.942Z,10.70
2022-10-31T06:36:59.428Z,10.70
2022-10-31T06:39:29.542Z,10.70
2022-10-31T06:41:57.748Z,10.70
2022-10-31T06:44:29.571Z,10.70
2022-10-31T06:47:01.072Z,10.70
2022-10-31T06:49:46.769Z,10.70
2022-10-31T06:52:17.773Z,10.70
2022-10-31T06:54:48.019Z,10.70
2022-10-31T06:57:16.576Z,10.70
2022-10-31T06:59:46.030Z,10.80
2022-10-31T07:02:40.430Z,10.80
2022-10-31T07:05:09.099Z,10.80
2022-10-31T07:07:37.296Z,10.80
2022-10-31T07:10:06.095Z,10.80
2022-10-31T07:12:49.426Z,10.80
2022-10-31T07:15:21.607Z,10.80
2022-10-31T07:17:49.871Z,10.80
2022-10-31T07:20:18.570Z,10.80
2022-10-31T07:22:50.748Z,10.80
2022-10-31T07:25:20.025Z,10.80
2022-10-31T07:28:11.422Z,10.90
2022-10-31T07:30:41.814Z,10.90
2022-10-31T07:33:11.147Z,10.90
2022-10-31T07:35:57.772Z,10.90
2022-10-31T07:38:31.332Z,10.90
2022-10-31T07:41:01.507Z,10.90
2022-10-31T07:43:32.231Z,10.90
2022-10-31T07:46:23.662Z,11.00
2022-10-31T07:49:10.406Z,11.00
2022-10-31T07:52:10.698Z,11.10
2022-10-31T07:54:57.373Z,11.10
2022-10-31T07:57:26.362Z,11.20
2022-10-31T07:59:56.684Z,11.20
2022-10-31T08:02:27.296Z,11.20
2022-10-31T08:05:31.320Z,11.30
2022-10-31T08:08:18.208Z,11.30
2022-10-31T08:10:47.731Z,11.30
2022-10-31T08:13:16.667Z,11.30
2022-10-31T08:15:51.467Z,11.30
2022-10-31T08:18:23.918Z,11.40
2022-10-31T08:20:56.091Z,11.40
2022-10-31T08:23:24.663Z,11.40
2022-10-31T08:25:54.769Z,11.50
2022-10-31T08:28:24.602Z,11.50
2022-10-31T08:30:54.576Z,11.50
2022-10-31T08:33:42.217Z,11.60
2022-10-31T08:36:10.511Z,11.60
2022-10-31T08:39:10.723Z,11.60
2022-10-31T08:41:40.595Z,11.50
2022-10-31T08:44:13.077Z,11.60
2022-10-31T08:46:41.691Z,11.60
2022-10-31T08:49:11.276Z,11.60
2022-10-31T08:51:44.233Z,11.70
2022-10-31T08:54:12.614Z,11.70
2022-10-31T08:56:58.993Z,11.70
2022-10-31T08:59:40.909Z,11.80
2022-10-31T09:02:25.685Z,11.80
2022-10-31T09:05:00.336Z,11.90
2022-10-31T09:07:29.468Z,11.90
2022-10-31T09:09:57.828Z,12.00
2022-10-31T09:12:32.632Z,12.10
2022-10-31T09:15:30.743Z,12.10
2022-10-31T09:18:17.839Z,12.20
2022-10-31T09:20:53.557Z,12.30
2022-10-31T09:23:23.128Z,12.30
2022-10-31T09:25:52.772Z,12.40
2022-10-31T09:28:47.344Z,12.40
2022-10-31T09:31:17.303Z,12.50
2022-10-31T09:33:51.152Z,12.60
2022-10-31T09:36:39.051Z,12.60
2022-10-31T09:39:14.433Z,12.70
2022-10-31T09:42:30.824Z,12.80
2022-10-31T09:45:08.788Z,12.80
2022-10-31T09:47:49.509Z,12.90
2022-10-31T09:50:40.860Z,13.00
2022-10-31T09:53:40.656Z,13.10
2022-10-31T09:56:16.330Z,13.10
2022-10-31T09:58:49.947Z,13.20
2022-10-31T10:01:30.715Z,13.20
2022-10-31T10:04:03.619Z,13.30
2022-10-31T10:06:53.327Z,13.40
2022-10-31T10:09:58.944Z,13.40
2022-10-31T10:13:15.368Z,13.50
2022-10-31T10:16:00.362Z,13.50
2022-10-31T10:18:39.857Z,13.60
2022-10-31T10:21:23.644Z,13.70
2022-10-31T10:24:04.818Z,13.70
2022-10-31T10:26:39.061Z,13.70
2022-10-31T10:29:23.383Z,13.80
2022-10-31T10:31:53.706Z,13.80
2022-10-31T10:34:26.162Z,13.80
2022-10-31T10:36:59.005Z,13.90
2022-10-31T10:39:32.870Z,13.90
2022-10-31T10:42:20.675Z,14.00
2022-10-31T10:45:09.608Z,14.00
2022-10-31T10:47:43.940Z,14.00
2022-10-31T10:50:17.901Z,14.10
2022-10-31T10:53:00.182Z,14.10
2022-10-31T10:55:34.859Z,14.20
2022-10-31T10:58:05.799Z,14.30
2022-10-31T11:00:40.061Z,14.30
2022-10-31T11:03:08.638Z,14.40
2022-10-31T11:05:39.712Z,14.40
2022-10-31T11:08:08.826Z,14.50
2022-10-31T11:10:39.818Z,14.50
2022-10-31T11:13:24.406Z,14.50
2022-10-31T11:16:02.203Z,14.60
2022-10-31T11:18:32.710Z,14.60
2022-10-31T11:21:05.329Z,14.70
2022-10-31T11:23:35.673Z,14.80
2022-10-31T11:26:05.847Z,14.80
2022-10-31T11:28:42.736Z,14.90
2022-10-31T11:31:15.092Z,14.90
2022-10-31T11:33:50.146Z,15.00
2022-10-31T11:36:23.334Z,15.00
2022-10-31T11:38:55.060Z,15.10
2022-10-31T11:41:29.725Z,15.10
2022-10-31T11:44:02.839Z,15.20
2022-10-31T11:46:36.451Z,15.30
2022-10-31T11:49:05.831Z,15.30
2022-10-31T11:51:37.334Z,15.40
2022-10-31T11:54:06.844Z,15.50
2022-10-31T11:56:41.711Z,15.60
2022-10-31T11:59:23.798Z,15.70
2022-10-31T12:01:54.061Z,15.70
2022-10-31T12:04:37.428Z,15.70
2022-10-31T12:07:05.650Z,15.70
2022-10-31T12:09:36.529Z,15.80
2022-10-31T12:12:36.097Z,15.80
2022-10-31T12:15:31.590Z,15.80
2022-10-31T12:18:24.625Z,15.90
2022-10-31T12:21:07.185Z,15.90
2022-10-31T12:23:46.798Z,15.90
2022-10-31T12:26:20.657Z,16.00
2022-10-31T12:29:05.567Z,16.00
2022-10-31T12:31:49.052Z,16.20
2022-10-31T12:35:02.472Z,16.20
2022-10-31T12:37:43.867Z,16.30
2022-10-31T12:40:31.989Z,16.30
2022-10-31T12:43:13.347Z,16.40
2022-10-31T12:45:54.161Z,16.40
2022-10-31T12:48:44.295Z,16.40
2022-10-31T12:51:22.802Z,16.50
2022-10-31T12:54:07.195Z,16.50
2022-10-31T12:56:47.340Z,16.50
2022-10-31T12:59:30.477Z,16.60
2022-10-31T13:02:06.427Z,16.60
2022-10-31T13:04:44.445Z,16.70
2022-10-31T13:07:19.493Z,16.70
2022-10-31T13:09:55.404Z,16.70
2022-10-31T13:12:24.896Z,16.70
2022-10-31T13:14:56.775Z,16.70
2022-10-31T13:17:30.935Z,16.70
2022-10-31T13:20:14.413Z,16.80
2022-10-31T13:22:47.646Z,16.80
2022-10-31T13:25:21.459Z,16.80
2022-10-31T13:27:57.013Z,16.80
2022-10-31T13:30:27.899Z,16.80
2022-10-31T13:33:02.135Z,16.80
2022-10-31T13:35:43.930Z,16.80
2022-10-31T13:38:20.840Z,16.80
2022-10-31T13:40:56.096Z,16.70
2022-10-31T13:43:37.491Z,16.70
2022-10-31T13:46:24.339Z,16.70
2022-10-31T13:48:52.488Z,16.70
2022-10-31T13:51:32.261Z,16.70
2022-10-31T13:54:02.564Z,16.70
2022-10-31T13:56:35.378Z,16.70
2022-10-31T13:59:22.963Z,16.70
2022-10-31T14:01:55.346Z,16.70
2022-10-31T14:04:26.269Z,16.70
2022-10-31T14:07:07.345Z,16.70
2022-10-31T14:09:37.644Z,16.70
2022-10-31T14:12:09.247Z,16.70
2022-10-31T14:14:45.959Z,16.70
2022-10-31T14:17:22.320Z,16.70
2022-10-31T14:20:05.674Z,16.70
2022-10-31T14:22:44.699Z,16.70
2022-10-31T14:25:34.404Z,16.70
2022-10-31T14:28:20.286Z,16.70
2022-10-31T14:30:54.857Z,16.70
2022-10-31T14:33:26.232Z,16.70
2022-10-31T14:35:59.755Z,16.70
2022-10-31T14:38:52.045Z,16.70
2022-10-31T14:41:47.796Z,16.70
2022-10-31T14:44:56.429Z,16.70
2022-10-31T14:47:37.437Z,16.70
2022-10-31T14:50:26.452Z,16.70
2022-10-31T14:52:58.792Z,16.70
2022-10-31T14:55:29.308Z,16.70
2022-10-31T14:58:03.755Z,16.60
2022-10-31T15:00:37.214Z,16.60
2022-10-31T15:03:15.900Z,16.60
2022-10-31T15:05:50.255Z,16.60
2022-10-31T15:08:34.621Z,16.60
2022-10-31T15:11:13.299Z,16.60
2022-10-31T15:13:46.611Z,16.60
2022-10-31T15:16:17.610Z,16.60
2022-10-31T15:18:53.601Z,16.60
2022-10-31T15:21:25.731Z,16.60
2022-10-31T15:23:56.237Z,16.60
2022-10-31T15:26:29.736Z,16.60
2022-10-31T15:29:03.244Z,16.50
2022-10-31T15:31:33.105Z,16.50
2022-10-31T15:34:08.188Z,16.50
2022-10-31T15:36:38.614Z,16.50
2022-10-31T15:39:07.451Z,16.40
2022-10-31T15:41:53.932Z,16.40
2022-10-31T15:44:25.793Z,16.40
2022-10-31T15:46:59.987Z,16.40
2022-10-31T15:49:36.442Z,16.30
2022-10-31T15:52:19.355Z,16.30
2022-10-31T15:54:53.280Z,16.30
2022-10-31T15:57:23.179Z,16.20
2022-10-31T15:59:52.131Z,16.20
2022-10-31T16:02:23.390Z,16.20
2022-10-31T16:04:56.728Z,16.10
2022-10-31T16:07:25.368Z,16.10
2022-10-31T16:09:58.720Z,16.10
2022-10-31T16:12:33.363Z,16.00
2022-10-31T16:15:01.715Z,16.00
2022-10-31T16:17:30.714Z,15.90
2022-10-31T16:20:03.678Z,15.90
2022-10-31T16:22:33.946Z,15.90
2022-10-31T16:25:07.070Z,15.90
2022-10-31T16:27:38.856Z,15.90
2022-10-31T16:30:32.686Z,15.80
2022-10-31T16:33:02.325Z,15.80
2022-10-31T16:35:35.418Z,15.70
2022-10-31T16:38:04.359Z,15.70
2022-10-31T16:40:36.310Z,15.60
2022-10-31T16:43:05.999Z,15.60
2022-10-31T16:45:35.182Z,15.60
2022-10-31T16:48:08.348Z,15.50
2022-10-31T16:50:36.532Z,15.50
2022-10-31T16:53:20.276Z,15.50
2022-10-31T16:55:50.413Z,15.50
2022-10-31T16:58:23.667Z,15.50
2022-10-31T17:00:52.230Z,15.40
2022-10-31T17:03:20.876Z,15.40
2022-10-31T17:05:49.014Z,15.40
2022-10-31T17:08:17.679Z,15.40
2022-10-31T17:10:47.686Z,15.40
2022-10-31T17:13:19.719Z,15.40
2022-10-31T17:15:51.662Z,15.30
2022-10-31T17:18:26.897Z,15.30
2022-10-31T17:21:00.025Z,15.30
2022-10-31T17:23:29.193Z,15.30
2022-10-31T17:25:57.370Z,15.30
2022-10-31T17:28:26.566Z,15.30
2022-10-31T17:30:59.062Z,15.30
2022-10-31T17:33:27.339Z,15.30
2022-10-31T17:35:55.598Z,15.30
2022-10-31T17:38:24.117Z,15.30
2022-10-31T17:40:52.316Z,15.30
2022-10-31T17:43:20.436Z,15.30
2022-10-31T17:45:49.106Z,15.40
2022-10-31T17:48:18.634Z,15.30
2022-10-31T17:50:46.823Z,15.30
2022-10-31T17:53:14.939Z,15.30
2022-10-31T17:55:43.072Z,15.30
2022-10-31T17:58:12.316Z,15.30
2022-10-31T18:00:44.727Z,15.30
2022-10-31T18:03:15.476Z,15.30
2022-10-31T18:05:53.040Z,15.30
2022-10-31T18:08:21.181Z,15.40
2022-10-31T18:10:49.329Z,15.30
2022-10-31T18:13:17.594Z,15.40
2022-10-31T18:15:45.727Z,15.30
2022-10-31T18:18:14.041Z,15.30
2022-10-31T18:20:42.237Z,15.30
2022-10-31T18:23:11.705Z,15.30
2022-10-31T18:25:40.929Z,15.30
2022-10-31T18:28:09.046Z,15.30
2022-10-31T18:30:43.164Z,15.30
2022-10-31T18:33:11.737Z,15.20
2022-10-31T18:35:42.651Z,15.20
2022-10-31T18:38:12.133Z,15.20
2022-10-31T18:40:42.495Z,15.20
2022-10-31T18:43:10.605Z,15.20
2022-10-31T18:45:46.944Z,15.20
2022-10-31T18:48:18.489Z,15.20
2022-10-31T18:50:46.895Z,15.20
2022-10-31T18:53:16.448Z,15.20
2022-10-31T18:55:47.659Z,15.10
2022-10-31T18:58:18.677Z,15.10
2022-10-31T19:00:47.286Z,15.10
2022-10-31T19:03:16.245Z,15.10
2022-10-31T19:05:44.315Z,15.00
2022-10-31T19:08:12.631Z,15.10
2022-10-31T19:10:42.930Z,15.00
2022-10-31T19:13:10.986Z,15.00
2022-10-31T19:15:41.541Z,15.00
2022-10-31T19:18:12.302Z,15.00
2022-10-31T19:20:41.057Z,15.00
2022-10-31T19:23:09.210Z,14.90
2022-10-31T19:25:39.413Z,15.00
2022-10-31T19:28:09.344Z,15.00
2022-10-31T19:30:37.493Z,14.90
2022-10-31T19:33:08.018Z,14.90
2022-10-31T19:35:38.483Z,14.90
2022-10-31T19:38:06.712Z,14.90
2022-10-31T19:40:38.221Z,14.90
2022-10-31T19:43:06.397Z,14.90
2022-10-31T19:45:35.992Z,14.90
2022-10-31T19:48:04.624Z,14.90
2022-10-31T19:50:35.185Z,14.90
2022-10-31T19:53:03.467Z,14.90
2022-10-31T19:55:31.641Z,14.90
2022-10-31T19:58:11.689Z,14.80
2022-10-31T20:00:43.647Z,14.80
2022-10-31T20:03:12.120Z,14.80
2022-10-31T20:05:42.893Z,14.80
2022-10-31T20:08:15.847Z,14.80
2022-10-31T20:10:55.739Z,14.80
2022-10-31T20:13:24.184Z,14.70
2022-10-31T20:15:53.815Z,14.70
2022-10-31T20:20:55.254Z,14.70
2022-10-31T20:23:23.853Z,14.60
2022-10-31T20:25:52.020Z,14.60
2022-10-31T20:28:20.184Z,14.60
2022-10-31T20:30:50.450Z,14.50
2022-10-31T20:33:22.889Z,14.50
2022-10-31T20:35:51.002Z,14.50
2022-10-31T20:38:19.142Z,14.50
2022-10-31T20:40:47.240Z,14.50
2022-10-31T20:43:18.447Z,14.40
2022-10-31T20:45:46.631Z,14.40
2022-10-31T20:48:14.750Z,14.40
2022-10-31T20:50:44.255Z,14.40
2022-10-31T20:53:12.407Z,14.30
2022-10-31T20:55:40.544Z,14.30
2022-10-31T20:58:08.622Z,14.30
2022-10-31T21:00:36.708Z,14.30
2022-10-31T21:03:05.047Z,14.20
2022-10-31T21:05:33.398Z,14.20
2022-10-31T21:08:02.854Z,14.20
2022-10-31T21:10:30.995Z,14.20
2022-10-31T21:12:59.582Z,14.10
2022-10-31T21:15:30.317Z,14.10
2022-10-31T21:18:00.126Z,14.10
2022-10-31T21:20:28.469Z,14.10
2022-10-31T21:22:59.030Z,14.00
2022-10-31T21:25:29.002Z,14.00
2022-10-31T21:27:57.142Z,14.00
2022-10-31T21:30:25.312Z,14.00
2022-10-31T21:32:55.785Z,14.00
2022-10-31T21:35:24.054Z,14.00
2022-10-31T21:37:54.370Z,14.00
2022-10-31T21:40:22.481Z,14.00
2022-10-31T21:42:52.134Z,14.00
2022-10-31T21:45:21.407Z,13.90
2022-10-31T21:47:49.965Z,13.90
2022-10-31T21:50:19.046Z,13.90
2022-10-31T21:52:47.777Z,13.90
2022-10-31T21:55:15.103Z,13.90
2022-10-31T21:57:43.256Z,13.80
2022-10-31T22:00:13.907Z,13.80
2022-10-31T22:02:42.080Z,13.80
2022-10-31T22:05:12.541Z,13.80
2022-10-31T22:07:40.676Z,13.80
2022-10-31T22:10:09.665Z,13.80
2022-10-31T22:12:38.988Z,13.70
2022-10-31T22:15:08.083Z,13.80
2022-10-31T22:17:39.800Z,13.80
2022-10-31T22:20:09.304Z,13.70
2022-10-31T22:22:39.777Z,13.70
2022-10-31T22:25:08.935Z,13.70
2022-10-31T22:27:39.390Z,13.70
2022-10-31T22:30:11.603Z,13.70
2022-10-31T22:32:41.250Z,13.70
2022-10-31T22:35:11.867Z,13.70
2022-10-31T22:37:39.981Z,13.70
2022-10-31T22:40:09.493Z,13.70
2022-10-31T22:42:40.003Z,13.70
2022-10-31T22:45:09.324Z,13.60
2022-10-31T22:47:37.641Z,13.60
2022-10-31T22:50:10.088Z,13.60
2022-10-31T22:52:38.291Z,13.60
2022-10-31T22:55:10.071Z,13.60
2022-10-31T22:57:40.727Z,13.60
2022-10-31T23:00:10.280Z,13.60
2022-10-31T23:02:40.704Z,13.60
2022-10-31T23:05:10.607Z,13.50
2022-10-31T23:07:41.334Z,13.50
2022-10-31T23:10:10.125Z,13.50
2022-10-31T23:12:55.935Z,13.50
2022-10-31T23:15:24.096Z,13.50
2022-10-31T23:17:52.233Z,13.50
2022-10-31T23:20:24.554Z,13.50
2022-10-31T23:22:52.663Z,13.40
2022-10-31T23:25:40.412Z,13.50
2022-10-31T23:28:10.839Z,13.50
2022-10-31T23:30:39.227Z,13.50
2022-10-31T23:33:07.558Z,13.50
2022-10-31T23:35:37.193Z,13.50
2022-10-31T23:38:07.432Z,13.50
2022-10-31T23:40:36.286Z,13.50
2022-10-31T23:43:04.384Z,13.50
2022-10-31T23:45:32.556Z,13.40
2022-10-31T23:48:00.989Z,13.40
2022-10-31T23:50:31.721Z,13.50
2022-10-31T23:53:03.601Z,13.50
2022-10-31T23:55:31.829Z,13.40
2022-10-31T23:58:00.332Z,13.40
